sensor_id;sensor_type;location;lat;lon;timestamp;P1;durP1;ratioP1;P2;durP2;ratioP2
72761;SDS011;60886;55.034;73.150;2023-03-07T00:00:04;7.55;;;2.20;;
72761;SDS011;60886;55.034;73.150;2023-03-07T00:03:13;9.67;;;1.90;;
72761;SDS011;60886;55.034;73.150;2023-03-07T00:06:15;6.75;;;1.83;;
72761;SDS011;60886;55.034;73.150;2023-03-07T00:09:21;7.07;;;2.00;;
72761;SDS011;60886;55.034;73.150;2023-03-07T00:12:29;7.13;;;2.20;;
72761;SDS011;60886;55.034;73.150;2023-03-07T00:15:32;6.72;;;2.22;;
72761;SDS011;60886;55.034;73.150;2023-03-07T00:18:33;6.87;;;2.00;;
72761;SDS011;60886;55.034;73.150;2023-03-07T00:21:35;6.22;;;1.80;;
72761;SDS011;60886;55.034;73.150;2023-03-07T00:24:47;7.82;;;2.15;;
72761;SDS011;60886;55.034;73.150;2023-03-07T00:27:48;5.57;;;1.75;;
72761;SDS011;60886;55.034;73.150;2023-03-07T00:30:51;8.67;;;2.63;;
72761;SDS011;60886;55.034;73.150;2023-03-07T00:33:57;7.22;;;2.33;;
72761;SDS011;60886;55.034;73.150;2023-03-07T00:37:05;6.47;;;1.97;;
72761;SDS011;60886;55.034;73.150;2023-03-07T00:40:07;8.00;;;2.20;;
72761;SDS011;60886;55.034;73.150;2023-03-07T00:43:09;7.25;;;2.13;;
72761;SDS011;60886;55.034;73.150;2023-03-07T00:46:21;6.10;;;1.88;;
72761;SDS011;60886;55.034;73.150;2023-03-07T00:49:24;6.50;;;1.73;;
72761;SDS011;60886;55.034;73.150;2023-03-07T00:52:26;7.30;;;2.08;;
72761;SDS011;60886;55.034;73.150;2023-03-07T00:55:28;7.50;;;2.20;;
72761;SDS011;60886;55.034;73.150;2023-03-07T00:58:30;7.63;;;2.53;;
72761;SDS011;60886;55.034;73.150;2023-03-07T01:01:33;9.38;;;2.90;;
72761;SDS011;60886;55.034;73.150;2023-03-07T01:04:35;8.50;;;2.53;;
72761;SDS011;60886;55.034;73.150;2023-03-07T01:07:36;6.95;;;2.47;;
72761;SDS011;60886;55.034;73.150;2023-03-07T01:10:39;9.48;;;4.03;;
72761;SDS011;60886;55.034;73.150;2023-03-07T01:13:40;8.53;;;2.40;;
72761;SDS011;60886;55.034;73.150;2023-03-07T01:16:43;9.37;;;2.40;;
72761;SDS011;60886;55.034;73.150;2023-03-07T01:19:45;8.03;;;2.43;;
72761;SDS011;60886;55.034;73.150;2023-03-07T01:22:46;7.00;;;2.20;;
72761;SDS011;60886;55.034;73.150;2023-03-07T01:25:57;6.05;;;1.83;;
72761;SDS011;60886;55.034;73.150;2023-03-07T01:29:00;7.40;;;2.17;;
72761;SDS011;60886;55.034;73.150;2023-03-07T01:32:06;7.47;;;2.09;;
72761;SDS011;60886;55.034;73.150;2023-03-07T01:35:07;8.68;;;2.70;;
72761;SDS011;60886;55.034;73.150;2023-03-07T01:38:09;12.60;;;2.97;;
72761;SDS011;60886;55.034;73.150;2023-03-07T01:41:11;12.57;;;3.45;;
72761;SDS011;60886;55.034;73.150;2023-03-07T01:44:15;11.75;;;3.53;;
72761;SDS011;60886;55.034;73.150;2023-03-07T01:47:22;10.43;;;3.10;;
72761;SDS011;60886;55.034;73.150;2023-03-07T01:50:31;22.27;;;5.93;;
72761;SDS011;60886;55.034;73.150;2023-03-07T01:53:32;31.27;;;8.40;;
72761;SDS011;60886;55.034;73.150;2023-03-07T01:56:35;16.08;;;4.53;;
72761;SDS011;60886;55.034;73.150;2023-03-07T01:59:39;7.97;;;2.40;;
72761;SDS011;60886;55.034;73.150;2023-03-07T02:02:46;6.50;;;2.15;;
72761;SDS011;60886;55.034;73.150;2023-03-07T02:05:55;9.02;;;2.33;;
72761;SDS011;60886;55.034;73.150;2023-03-07T02:08:58;6.20;;;1.73;;
72761;SDS011;60886;55.034;73.150;2023-03-07T02:12:02;7.85;;;2.15;;
72761;SDS011;60886;55.034;73.150;2023-03-07T02:15:25;7.80;;;2.08;;
72761;SDS011;60886;55.034;73.150;2023-03-07T02:18:27;10.13;;;2.80;;
72761;SDS011;60886;55.034;73.150;2023-03-07T02:24:50;14.30;;;3.90;;
72761;SDS011;60886;55.034;73.150;2023-03-07T02:27:56;19.05;;;4.65;;
72761;SDS011;60886;55.034;73.150;2023-03-07T02:31:09;16.05;;;3.78;;
72761;SDS011;60886;55.034;73.150;2023-03-07T02:34:24;10.87;;;2.87;;
72761;SDS011;60886;55.034;73.150;2023-03-07T02:37:56;11.43;;;3.20;;
72761;SDS011;60886;55.034;73.150;2023-03-07T02:41:01;16.23;;;3.70;;
72761;SDS011;60886;55.034;73.150;2023-03-07T02:44:04;10.38;;;2.92;;
72761;SDS011;60886;55.034;73.150;2023-03-07T02:47:05;9.40;;;2.57;;
72761;SDS011;60886;55.034;73.150;2023-03-07T02:50:18;9.68;;;2.35;;
72761;SDS011;60886;55.034;73.150;2023-03-07T02:53:24;7.90;;;1.87;;
72761;SDS011;60886;55.034;73.150;2023-03-07T02:56:25;9.48;;;2.70;;
72761;SDS011;60886;55.034;73.150;2023-03-07T02:59:26;7.53;;;1.93;;
72761;SDS011;60886;55.034;73.150;2023-03-07T03:02:28;7.70;;;2.58;;
72761;SDS011;60886;55.034;73.150;2023-03-07T03:05:29;6.95;;;2.20;;
72761;SDS011;60886;55.034;73.150;2023-03-07T03:08:31;7.80;;;2.22;;
72761;SDS011;60886;55.034;73.150;2023-03-07T03:11:32;6.97;;;2.30;;
72761;SDS011;60886;55.034;73.150;2023-03-07T03:14:39;7.18;;;2.08;;
72761;SDS011;60886;55.034;73.150;2023-03-07T03:17:40;7.60;;;2.30;;
72761;SDS011;60886;55.034;73.150;2023-03-07T03:20:47;6.28;;;2.00;;
72761;SDS011;60886;55.034;73.150;2023-03-07T03:23:54;6.27;;;1.90;;
72761;SDS011;60886;55.034;73.150;2023-03-07T03:27:02;9.78;;;2.27;;
72761;SDS011;60886;55.034;73.150;2023-03-07T03:30:05;7.68;;;2.15;;
72761;SDS011;60886;55.034;73.150;2023-03-07T03:33:09;8.80;;;2.47;;
72761;SDS011;60886;55.034;73.150;2023-03-07T03:36:15;8.32;;;2.67;;
72761;SDS011;60886;55.034;73.150;2023-03-07T03:39:20;7.63;;;2.20;;
72761;SDS011;60886;55.034;73.150;2023-03-07T03:42:27;6.83;;;2.07;;
72761;SDS011;60886;55.034;73.150;2023-03-07T03:45:28;6.90;;;1.98;;
72761;SDS011;60886;55.034;73.150;2023-03-07T03:48:40;7.30;;;2.40;;
72761;SDS011;60886;55.034;73.150;2023-03-07T03:51:41;7.20;;;2.58;;
72761;SDS011;60886;55.034;73.150;2023-03-07T03:54:43;7.60;;;2.58;;
72761;SDS011;60886;55.034;73.150;2023-03-07T03:57:45;7.50;;;2.63;;
72761;SDS011;60886;55.034;73.150;2023-03-07T04:00:46;7.88;;;2.83;;
72761;SDS011;60886;55.034;73.150;2023-03-07T04:03:48;9.53;;;2.90;;
72761;SDS011;60886;55.034;73.150;2023-03-07T04:06:51;9.05;;;2.90;;
72761;SDS011;60886;55.034;73.150;2023-03-07T04:09:52;11.57;;;3.40;;
72761;SDS011;60886;55.034;73.150;2023-03-07T04:12:59;8.33;;;2.90;;
72761;SDS011;60886;55.034;73.150;2023-03-07T04:16:12;8.20;;;2.80;;
72761;SDS011;60886;55.034;73.150;2023-03-07T04:19:13;9.10;;;2.80;;
72761;SDS011;60886;55.034;73.150;2023-03-07T04:22:19;9.27;;;2.53;;
72761;SDS011;60886;55.034;73.150;2023-03-07T04:25:22;9.57;;;2.72;;
72761;SDS011;60886;55.034;73.150;2023-03-07T04:28:27;10.23;;;2.90;;
72761;SDS011;60886;55.034;73.150;2023-03-07T04:32:03;10.12;;;2.66;;
72761;SDS011;60886;55.034;73.150;2023-03-07T04:35:10;10.02;;;2.85;;
72761;SDS011;60886;55.034;73.150;2023-03-07T04:38:16;12.83;;;3.33;;
72761;SDS011;60886;55.034;73.150;2023-03-07T04:41:19;8.38;;;2.75;;
72761;SDS011;60886;55.034;73.150;2023-03-07T04:44:32;9.33;;;2.67;;
72761;SDS011;60886;55.034;73.150;2023-03-07T04:47:33;10.47;;;3.20;;
72761;SDS011;60886;55.034;73.150;2023-03-07T04:50:36;8.35;;;2.60;;
72761;SDS011;60886;55.034;73.150;2023-03-07T04:53:48;9.38;;;2.70;;
72761;SDS011;60886;55.034;73.150;2023-03-07T04:57:02;14.12;;;3.60;;
72761;SDS011;60886;55.034;73.150;2023-03-07T05:00:04;9.40;;;2.83;;
72761;SDS011;60886;55.034;73.150;2023-03-07T05:03:11;11.30;;;3.13;;
72761;SDS011;60886;55.034;73.150;2023-03-07T05:06:19;7.85;;;2.70;;
72761;SDS011;60886;55.034;73.150;2023-03-07T05:09:29;8.37;;;2.63;;
72761;SDS011;60886;55.034;73.150;2023-03-07T05:12:32;10.93;;;2.80;;
72761;SDS011;60886;55.034;73.150;2023-03-07T05:15:42;9.00;;;3.08;;
72761;SDS011;60886;55.034;73.150;2023-03-07T05:18:49;9.60;;;3.00;;
72761;SDS011;60886;55.034;73.150;2023-03-07T05:22:02;10.77;;;3.27;;
72761;SDS011;60886;55.034;73.150;2023-03-07T05:25:09;7.87;;;2.90;;
72761;SDS011;60886;55.034;73.150;2023-03-07T05:28:11;7.18;;;2.42;;
72761;SDS011;60886;55.034;73.150;2023-03-07T05:31:13;11.02;;;2.78;;
72761;SDS011;60886;55.034;73.150;2023-03-07T05:34:14;13.53;;;3.10;;
72761;SDS011;60886;55.034;73.150;2023-03-07T05:37:26;9.67;;;2.93;;
72761;SDS011;60886;55.034;73.150;2023-03-07T05:40:33;9.70;;;3.22;;
72761;SDS011;60886;55.034;73.150;2023-03-07T05:43:45;11.18;;;3.10;;
72761;SDS011;60886;55.034;73.150;2023-03-07T05:46:47;12.52;;;3.60;;
72761;SDS011;60886;55.034;73.150;2023-03-07T05:49:48;10.83;;;3.83;;
72761;SDS011;60886;55.034;73.150;2023-03-07T05:52:50;8.60;;;3.30;;
72761;SDS011;60886;55.034;73.150;2023-03-07T05:55:53;11.10;;;2.75;;
72761;SDS011;60886;55.034;73.150;2023-03-07T05:59:05;9.77;;;3.00;;
72761;SDS011;60886;55.034;73.150;2023-03-07T06:02:11;9.18;;;3.05;;
72761;SDS011;60886;55.034;73.150;2023-03-07T06:05:13;10.17;;;2.80;;
72761;SDS011;60886;55.034;73.150;2023-03-07T06:08:15;8.65;;;3.10;;
72761;SDS011;60886;55.034;73.150;2023-03-07T06:11:33;12.23;;;2.90;;
72761;SDS011;60886;55.034;73.150;2023-03-07T06:14:37;8.63;;;2.92;;
72761;SDS011;60886;55.034;73.150;2023-03-07T06:17:48;10.57;;;3.08;;
72761;SDS011;60886;55.034;73.150;2023-03-07T06:21:04;9.53;;;3.03;;
72761;SDS011;60886;55.034;73.150;2023-03-07T06:24:11;9.38;;;3.30;;
72761;SDS011;60886;55.034;73.150;2023-03-07T06:27:13;9.23;;;3.00;;
72761;SDS011;60886;55.034;73.150;2023-03-07T06:30:15;8.30;;;3.22;;
72761;SDS011;60886;55.034;73.150;2023-03-07T06:33:16;12.27;;;3.60;;
72761;SDS011;60886;55.034;73.150;2023-03-07T06:36:24;10.68;;;3.88;;
72761;SDS011;60886;55.034;73.150;2023-03-07T06:39:32;10.98;;;3.70;;
72761;SDS011;60886;55.034;73.150;2023-03-07T06:42:36;11.18;;;4.18;;
72761;SDS011;60886;55.034;73.150;2023-03-07T06:45:48;11.30;;;3.90;;
72761;SDS011;60886;55.034;73.150;2023-03-07T06:48:50;14.17;;;4.50;;
72761;SDS011;60886;55.034;73.150;2023-03-07T06:52:04;9.48;;;4.18;;
72761;SDS011;60886;55.034;73.150;2023-03-07T06:55:06;11.60;;;4.20;;
72761;SDS011;60886;55.034;73.150;2023-03-07T06:58:19;9.97;;;3.60;;
72761;SDS011;60886;55.034;73.150;2023-03-07T07:01:21;9.65;;;3.80;;
72761;SDS011;60886;55.034;73.150;2023-03-07T07:04:35;11.13;;;3.47;;
72761;SDS011;60886;55.034;73.150;2023-03-07T07:07:46;11.93;;;3.57;;
72761;SDS011;60886;55.034;73.150;2023-03-07T07:10:51;9.75;;;3.55;;
72761;SDS011;60886;55.034;73.150;2023-03-07T07:13:53;19.55;;;8.45;;
72761;SDS011;60886;55.034;73.150;2023-03-07T07:17:02;10.25;;;3.40;;
72761;SDS011;60886;55.034;73.150;2023-03-07T07:20:04;8.93;;;3.43;;
72761;SDS011;60886;55.034;73.150;2023-03-07T07:23:17;9.30;;;3.47;;
72761;SDS011;60886;55.034;73.150;2023-03-07T07:26:21;13.73;;;3.78;;
72761;SDS011;60886;55.034;73.150;2023-03-07T07:29:38;8.75;;;3.25;;
72761;SDS011;60886;55.034;73.150;2023-03-07T07:32:45;10.23;;;3.40;;
72761;SDS011;60886;55.034;73.150;2023-03-07T07:35:46;10.02;;;2.92;;
72761;SDS011;60886;55.034;73.150;2023-03-07T07:38:48;8.67;;;3.00;;
72761;SDS011;60886;55.034;73.150;2023-03-07T07:41:50;10.10;;;3.40;;
72761;SDS011;60886;55.034;73.150;2023-03-07T07:45:00;9.68;;;3.65;;
72761;SDS011;60886;55.034;73.150;2023-03-07T07:48:13;14.10;;;5.10;;
72761;SDS011;60886;55.034;73.150;2023-03-07T07:51:15;12.88;;;4.32;;
72761;SDS011;60886;55.034;73.150;2023-03-07T07:54:16;17.23;;;5.13;;
72761;SDS011;60886;55.034;73.150;2023-03-07T07:57:18;10.57;;;4.10;;
72761;SDS011;60886;55.034;73.150;2023-03-07T08:00:20;10.73;;;3.90;;
72761;SDS011;60886;55.034;73.150;2023-03-07T08:03:21;11.82;;;4.10;;
72761;SDS011;60886;55.034;73.150;2023-03-07T08:06:24;10.70;;;3.60;;
72761;SDS011;60886;55.034;73.150;2023-03-07T08:09:32;11.07;;;3.95;;
72761;SDS011;60886;55.034;73.150;2023-03-07T08:12:34;10.85;;;3.88;;
72761;SDS011;60886;55.034;73.150;2023-03-07T08:15:46;11.18;;;4.10;;
72761;SDS011;60886;55.034;73.150;2023-03-07T08:18:54;11.88;;;3.70;;
72761;SDS011;60886;55.034;73.150;2023-03-07T08:22:06;8.21;;;3.13;;
72761;SDS011;60886;55.034;73.150;2023-03-07T08:25:09;9.93;;;3.35;;
72761;SDS011;60886;55.034;73.150;2023-03-07T08:28:25;10.13;;;3.67;;
72761;SDS011;60886;55.034;73.150;2023-03-07T08:31:26;9.65;;;3.60;;
72761;SDS011;60886;55.034;73.150;2023-03-07T08:34:27;7.90;;;3.13;;
72761;SDS011;60886;55.034;73.150;2023-03-07T08:37:32;10.50;;;2.88;;
72761;SDS011;60886;55.034;73.150;2023-03-07T08:40:33;10.48;;;3.40;;
72761;SDS011;60886;55.034;73.150;2023-03-07T08:43:35;12.15;;;4.30;;
72761;SDS011;60886;55.034;73.150;2023-03-07T08:46:38;14.95;;;5.75;;
72761;SDS011;60886;55.034;73.150;2023-03-07T08:49:40;15.47;;;6.90;;
72761;SDS011;60886;55.034;73.150;2023-03-07T08:52:41;16.65;;;6.40;;
72761;SDS011;60886;55.034;73.150;2023-03-07T08:55:54;18.57;;;7.23;;
72761;SDS011;60886;55.034;73.150;2023-03-07T08:59:00;21.20;;;7.60;;
72761;SDS011;60886;55.034;73.150;2023-03-07T09:02:02;16.60;;;7.50;;
72761;SDS011;60886;55.034;73.150;2023-03-07T09:05:03;14.30;;;5.43;;
72761;SDS011;60886;55.034;73.150;2023-03-07T09:08:06;15.50;;;5.18;;
72761;SDS011;60886;55.034;73.150;2023-03-07T09:11:07;14.03;;;5.47;;
72761;SDS011;60886;55.034;73.150;2023-03-07T09:14:09;16.70;;;5.70;;
72761;SDS011;60886;55.034;73.150;2023-03-07T09:17:10;14.27;;;5.70;;
72761;SDS011;60886;55.034;73.150;2023-03-07T09:20:12;15.43;;;6.53;;
72761;SDS011;60886;55.034;73.150;2023-03-07T09:23:26;15.73;;;6.90;;
72761;SDS011;60886;55.034;73.150;2023-03-07T09:26:27;15.60;;;6.78;;
72761;SDS011;60886;55.034;73.150;2023-03-07T09:29:28;13.27;;;5.80;;
72761;SDS011;60886;55.034;73.150;2023-03-07T09:32:32;14.32;;;5.60;;
72761;SDS011;60886;55.034;73.150;2023-03-07T09:35:34;14.45;;;6.00;;
72761;SDS011;60886;55.034;73.150;2023-03-07T09:38:35;14.93;;;6.43;;
72761;SDS011;60886;55.034;73.150;2023-03-07T09:48:39;13.27;;;6.10;;
72761;SDS011;60886;55.034;73.150;2023-03-07T09:52:02;15.15;;;6.47;;
72761;SDS011;60886;55.034;73.150;2023-03-07T09:55:17;17.77;;;6.90;;
72761;SDS011;60886;55.034;73.150;2023-03-07T09:58:31;16.73;;;7.20;;
72761;SDS011;60886;55.034;73.150;2023-03-07T10:01:38;19.47;;;7.17;;
72761;SDS011;60886;55.034;73.150;2023-03-07T10:04:53;21.65;;;6.97;;
72761;SDS011;60886;55.034;73.150;2023-03-07T10:08:04;13.85;;;5.75;;
72761;SDS011;60886;55.034;73.150;2023-03-07T10:18:13;19.42;;;5.65;;
72761;SDS011;60886;55.034;73.150;2023-03-07T10:27:57;15.40;;;5.47;;
72761;SDS011;60886;55.034;73.150;2023-03-07T10:31:13;13.48;;;5.05;;
72761;SDS011;60886;55.034;73.150;2023-03-07T10:34:35;14.02;;;5.47;;
72761;SDS011;60886;55.034;73.150;2023-03-07T10:38:01;13.63;;;5.53;;
72761;SDS011;60886;55.034;73.150;2023-03-07T10:41:14;14.57;;;6.00;;
72761;SDS011;60886;55.034;73.150;2023-03-07T10:44:28;17.60;;;7.07;;
72761;SDS011;60886;55.034;73.150;2023-03-07T10:47:32;17.00;;;6.50;;
72761;SDS011;60886;55.034;73.150;2023-03-07T10:50:48;15.02;;;6.35;;
72761;SDS011;60886;55.034;73.150;2023-03-07T10:53:56;15.80;;;6.73;;
72761;SDS011;60886;55.034;73.150;2023-03-07T10:57:15;13.05;;;5.68;;
72761;SDS011;60886;55.034;73.150;2023-03-07T11:00:27;14.32;;;5.50;;
72761;SDS011;60886;55.034;73.150;2023-03-07T11:03:54;13.07;;;5.35;;
72761;SDS011;60886;55.034;73.150;2023-03-07T11:07:34;15.30;;;6.07;;
72761;SDS011;60886;55.034;73.150;2023-03-07T11:10:39;13.98;;;5.72;;
72761;SDS011;60886;55.034;73.150;2023-03-07T11:14:02;17.20;;;5.80;;
72761;SDS011;60886;55.034;73.150;2023-03-07T11:17:13;11.84;;;5.47;;
72761;SDS011;60886;55.034;73.150;2023-03-07T11:20:45;13.93;;;5.60;;
72761;SDS011;60886;55.034;73.150;2023-03-07T11:23:56;13.43;;;5.65;;
72761;SDS011;60886;55.034;73.150;2023-03-07T11:27:02;11.65;;;5.03;;
72761;SDS011;60886;55.034;73.150;2023-03-07T11:30:23;9.73;;;4.00;;
72761;SDS011;60886;55.034;73.150;2023-03-07T11:33:59;10.97;;;4.40;;
72761;SDS011;60886;55.034;73.150;2023-03-07T11:37:24;9.75;;;3.95;;
72761;SDS011;60886;55.034;73.150;2023-03-07T11:47:24;17.53;;;4.40;;
72761;SDS011;60886;55.034;73.150;2023-03-07T11:50:39;13.98;;;5.13;;
72761;SDS011;60886;55.034;73.150;2023-03-07T11:54:05;17.70;;;6.33;;
72761;SDS011;60886;55.034;73.150;2023-03-07T11:57:41;16.25;;;6.35;;
72761;SDS011;60886;55.034;73.150;2023-03-07T12:00:54;14.23;;;6.35;;
72761;SDS011;60886;55.034;73.150;2023-03-07T12:10:27;13.43;;;5.80;;
72761;SDS011;60886;55.034;73.150;2023-03-07T12:23:16;14.13;;;6.28;;
72761;SDS011;60886;55.034;73.150;2023-03-07T12:29:55;14.27;;;5.75;;
72761;SDS011;60886;55.034;73.150;2023-03-07T12:33:02;15.37;;;5.27;;
72761;SDS011;60886;55.034;73.150;2023-03-07T12:36:07;11.95;;;4.95;;
72761;SDS011;60886;55.034;73.150;2023-03-07T12:45:47;14.55;;;5.22;;
72761;SDS011;60886;55.034;73.150;2023-03-07T12:49:18;13.50;;;5.10;;
72761;SDS011;60886;55.034;73.150;2023-03-07T12:52:33;11.05;;;4.07;;
72761;SDS011;60886;55.034;73.150;2023-03-07T12:55:56;13.10;;;5.05;;
72761;SDS011;60886;55.034;73.150;2023-03-07T12:59:12;15.63;;;5.67;;
72761;SDS011;60886;55.034;73.150;2023-03-07T13:02:18;17.83;;;5.53;;
72761;SDS011;60886;55.034;73.150;2023-03-07T13:05:35;11.70;;;4.18;;
72761;SDS011;60886;55.034;73.150;2023-03-07T13:08:43;11.70;;;4.80;;
72761;SDS011;60886;55.034;73.150;2023-03-07T13:18:25;15.13;;;6.00;;
72761;SDS011;60886;55.034;73.150;2023-03-07T13:21:31;16.05;;;5.97;;
72761;SDS011;60886;55.034;73.150;2023-03-07T13:24:43;16.67;;;6.27;;
72761;SDS011;60886;55.034;73.150;2023-03-07T13:37:52;15.10;;;5.30;;
72761;SDS011;60886;55.034;73.150;2023-03-07T13:41:03;16.25;;;6.00;;
72761;SDS011;60886;55.034;73.150;2023-03-07T13:47:50;14.07;;;5.57;;
72761;SDS011;60886;55.034;73.150;2023-03-07T13:53:54;14.20;;;5.43;;
72761;SDS011;60886;55.034;73.150;2023-03-07T13:57:03;17.02;;;6.03;;
72761;SDS011;60886;55.034;73.150;2023-03-07T14:00:18;13.10;;;5.03;;
72761;SDS011;60886;55.034;73.150;2023-03-07T14:03:24;11.75;;;4.82;;
72761;SDS011;60886;55.034;73.150;2023-03-07T14:06:38;14.65;;;5.57;;
72761;SDS011;60886;55.034;73.150;2023-03-07T14:09:48;13.73;;;5.22;;
72761;SDS011;60886;55.034;73.150;2023-03-07T14:19:55;18.07;;;5.97;;
72761;SDS011;60886;55.034;73.150;2023-03-07T14:27:03;13.95;;;4.90;;
72761;SDS011;60886;55.034;73.150;2023-03-07T14:30:15;15.77;;;6.13;;
72761;SDS011;60886;55.034;73.150;2023-03-07T14:33:34;14.93;;;5.67;;
72761;SDS011;60886;55.034;73.150;2023-03-07T14:36:48;17.65;;;6.18;;
72761;SDS011;60886;55.034;73.150;2023-03-07T14:47:18;17.70;;;6.22;;
72761;SDS011;60886;55.034;73.150;2023-03-07T14:50:43;15.40;;;5.25;;
72761;SDS011;60886;55.034;73.150;2023-03-07T14:53:45;18.43;;;7.33;;
72761;SDS011;60886;55.034;73.150;2023-03-07T14:57:02;16.27;;;5.45;;
72761;SDS011;60886;55.034;73.150;2023-03-07T15:00:14;15.20;;;5.68;;
72761;SDS011;60886;55.034;73.150;2023-03-07T15:03:29;17.37;;;6.87;;
72761;SDS011;60886;55.034;73.150;2023-03-07T15:06:41;19.13;;;6.88;;
72761;SDS011;60886;55.034;73.150;2023-03-07T15:09:48;19.03;;;7.57;;
72761;SDS011;60886;55.034;73.150;2023-03-07T15:12:50;19.42;;;7.65;;
72761;SDS011;60886;55.034;73.150;2023-03-07T15:15:56;21.15;;;7.53;;
72761;SDS011;60886;55.034;73.150;2023-03-07T15:19:10;19.05;;;7.68;;
72761;SDS011;60886;55.034;73.150;2023-03-07T15:22:31;19.50;;;8.00;;
72761;SDS011;60886;55.034;73.150;2023-03-07T15:25:39;21.98;;;7.57;;
72761;SDS011;60886;55.034;73.150;2023-03-07T15:28:46;21.10;;;7.25;;
72761;SDS011;60886;55.034;73.150;2023-03-07T15:35:09;18.60;;;6.82;;
72761;SDS011;60886;55.034;73.150;2023-03-07T15:38:26;18.63;;;5.97;;
72761;SDS011;60886;55.034;73.150;2023-03-07T15:41:34;16.45;;;5.70;;
72761;SDS011;60886;55.034;73.150;2023-03-07T15:44:37;14.37;;;5.53;;
72761;SDS011;60886;55.034;73.150;2023-03-07T15:47:39;14.90;;;5.70;;
72761;SDS011;60886;55.034;73.150;2023-03-07T15:50:51;13.82;;;5.47;;
72761;SDS011;60886;55.034;73.150;2023-03-07T15:54:28;14.60;;;5.30;;
72761;SDS011;60886;55.034;73.150;2023-03-07T15:57:32;13.80;;;4.40;;
72761;SDS011;60886;55.034;73.150;2023-03-07T16:00:37;13.05;;;4.72;;
72761;SDS011;60886;55.034;73.150;2023-03-07T16:03:50;12.27;;;4.10;;
72761;SDS011;60886;55.034;73.150;2023-03-07T16:07:02;10.56;;;3.96;;
72761;SDS011;60886;55.034;73.150;2023-03-07T16:10:04;13.83;;;3.60;;
72761;SDS011;60886;55.034;73.150;2023-03-07T16:13:07;8.90;;;2.80;;
72761;SDS011;60886;55.034;73.150;2023-03-07T16:19:23;9.30;;;3.30;;
72761;SDS011;60886;55.034;73.150;2023-03-07T16:22:31;8.90;;;3.10;;
72761;SDS011;60886;55.034;73.150;2023-03-07T16:25:32;12.65;;;3.50;;
72761;SDS011;60886;55.034;73.150;2023-03-07T16:28:34;11.50;;;3.15;;
72761;SDS011;60886;55.034;73.150;2023-03-07T16:31:35;11.68;;;3.80;;
72761;SDS011;60886;55.034;73.150;2023-03-07T16:34:40;12.73;;;4.40;;
72761;SDS011;60886;55.034;73.150;2023-03-07T16:37:52;12.10;;;3.50;;
72761;SDS011;60886;55.034;73.150;2023-03-07T16:41:01;13.23;;;3.83;;
72761;SDS011;60886;55.034;73.150;2023-03-07T16:44:18;14.13;;;3.75;;
72761;SDS011;60886;55.034;73.150;2023-03-07T16:47:20;12.27;;;4.20;;
72761;SDS011;60886;55.034;73.150;2023-03-07T16:50:24;13.02;;;3.72;;
72761;SDS011;60886;55.034;73.150;2023-03-07T16:53:30;13.40;;;3.90;;
72761;SDS011;60886;55.034;73.150;2023-03-07T16:56:42;22.27;;;7.67;;
72761;SDS011;60886;55.034;73.150;2023-03-07T16:59:48;11.23;;;3.67;;
72761;SDS011;60886;55.034;73.150;2023-03-07T17:02:59;11.05;;;3.97;;
72761;SDS011;60886;55.034;73.150;2023-03-07T17:06:03;11.98;;;3.70;;
72761;SDS011;60886;55.034;73.150;2023-03-07T17:09:10;10.35;;;3.30;;
72761;SDS011;60886;55.034;73.150;2023-03-07T17:12:13;9.23;;;3.20;;
72761;SDS011;60886;55.034;73.150;2023-03-07T17:15:18;12.40;;;3.78;;
72761;SDS011;60886;55.034;73.150;2023-03-07T17:18:21;12.23;;;4.38;;
72761;SDS011;60886;55.034;73.150;2023-03-07T17:21:24;12.73;;;4.20;;
72761;SDS011;60886;55.034;73.150;2023-03-07T17:24:26;11.37;;;4.10;;
72761;SDS011;60886;55.034;73.150;2023-03-07T17:27:30;11.10;;;3.87;;
72761;SDS011;60886;55.034;73.150;2023-03-07T17:30:32;10.60;;;4.35;;
72761;SDS011;60886;55.034;73.150;2023-03-07T17:33:34;14.60;;;4.23;;
72761;SDS011;60886;55.034;73.150;2023-03-07T17:36:35;12.98;;;5.03;;
72761;SDS011;60886;55.034;73.150;2023-03-07T17:39:49;12.60;;;4.00;;
72761;SDS011;60886;55.034;73.150;2023-03-07T17:42:54;10.30;;;3.80;;
72761;SDS011;60886;55.034;73.150;2023-03-07T17:45:57;12.30;;;4.63;;
72761;SDS011;60886;55.034;73.150;2023-03-07T17:48:58;10.90;;;4.90;;
72761;SDS011;60886;55.034;73.150;2023-03-07T17:52:05;15.70;;;5.03;;
72761;SDS011;60886;55.034;73.150;2023-03-07T17:55:13;12.23;;;4.85;;
72761;SDS011;60886;55.034;73.150;2023-03-07T17:58:15;13.33;;;5.07;;
72761;SDS011;60886;55.034;73.150;2023-03-07T18:01:16;10.60;;;4.13;;
72761;SDS011;60886;55.034;73.150;2023-03-07T18:04:18;12.02;;;4.72;;
72761;SDS011;60886;55.034;73.150;2023-03-07T18:07:24;9.87;;;3.63;;
72761;SDS011;60886;55.034;73.150;2023-03-07T18:10:26;9.90;;;3.42;;
72761;SDS011;60886;55.034;73.150;2023-03-07T18:13:28;9.37;;;3.50;;
72761;SDS011;60886;55.034;73.150;2023-03-07T18:16:34;16.02;;;3.17;;
72761;SDS011;60886;55.034;73.150;2023-03-07T18:19:36;13.47;;;3.43;;
72761;SDS011;60886;55.034;73.150;2023-03-07T18:22:48;10.63;;;4.68;;
72761;SDS011;60886;55.034;73.150;2023-03-07T18:25:55;9.27;;;4.10;;
72761;SDS011;60886;55.034;73.150;2023-03-07T18:29:00;13.07;;;5.30;;
72761;SDS011;60886;55.034;73.150;2023-03-07T18:32:02;9.40;;;4.32;;
72761;SDS011;60886;55.034;73.150;2023-03-07T18:35:06;9.70;;;3.60;;
72761;SDS011;60886;55.034;73.150;2023-03-07T18:38:08;10.83;;;4.10;;
72761;SDS011;60886;55.034;73.150;2023-03-07T18:41:10;9.20;;;3.70;;
72761;SDS011;60886;55.034;73.150;2023-03-07T18:44:13;12.10;;;4.37;;
72761;SDS011;60886;55.034;73.150;2023-03-07T18:47:28;11.07;;;4.33;;
72761;SDS011;60886;55.034;73.150;2023-03-07T18:50:35;11.30;;;4.55;;
72761;SDS011;60886;55.034;73.150;2023-03-07T18:53:37;10.02;;;4.20;;
72761;SDS011;60886;55.034;73.150;2023-03-07T18:56:44;10.60;;;4.28;;
72761;SDS011;60886;55.034;73.150;2023-03-07T18:59:46;11.13;;;2.92;;
72761;SDS011;60886;55.034;73.150;2023-03-07T19:02:47;13.90;;;3.20;;
72761;SDS011;60886;55.034;73.150;2023-03-07T19:05:53;9.52;;;2.85;;
72761;SDS011;60886;55.034;73.150;2023-03-07T19:09:02;12.52;;;2.67;;
72761;SDS011;60886;55.034;73.150;2023-03-07T19:12:08;11.27;;;3.23;;
72761;SDS011;60886;55.034;73.150;2023-03-07T19:15:09;11.50;;;2.60;;
72761;SDS011;60886;55.034;73.150;2023-03-07T19:18:11;11.77;;;2.90;;
72761;SDS011;60886;55.034;73.150;2023-03-07T19:21:13;9.38;;;2.83;;
72761;SDS011;60886;55.034;73.150;2023-03-07T19:24:19;10.07;;;2.37;;
72761;SDS011;60886;55.034;73.150;2023-03-07T19:27:20;13.27;;;3.30;;
72761;SDS011;60886;55.034;73.150;2023-03-07T19:30:21;12.43;;;3.07;;
72761;SDS011;60886;55.034;73.150;2023-03-07T19:33:23;8.52;;;2.25;;
72761;SDS011;60886;55.034;73.150;2023-03-07T19:36:35;7.83;;;2.40;;
72761;SDS011;60886;55.034;73.150;2023-03-07T19:39:41;7.03;;;2.35;;
72761;SDS011;60886;55.034;73.150;2023-03-07T19:42:43;9.53;;;2.40;;
72761;SDS011;60886;55.034;73.150;2023-03-07T19:45:53;7.50;;;2.47;;
72761;SDS011;60886;55.034;73.150;2023-03-07T19:48:55;7.03;;;2.30;;
72761;SDS011;60886;55.034;73.150;2023-03-07T19:52:07;9.35;;;2.25;;
72761;SDS011;60886;55.034;73.150;2023-03-07T19:55:08;8.32;;;2.20;;
72761;SDS011;60886;55.034;73.150;2023-03-07T19:58:10;7.37;;;2.17;;
72761;SDS011;60886;55.034;73.150;2023-03-07T20:01:15;7.70;;;2.55;;
72761;SDS011;60886;55.034;73.150;2023-03-07T20:04:28;8.53;;;2.30;;